Latest Weather Observations for Cape Jaffa

IDS60801

Issued at 2:21 pm CST Monday 23 September 2019 (issued every 10 minutes, with the page automatically refreshed every 10 minutes)

About weather observations | Map of weather stations | Latest weather observations for SA | Other Formats
Station Details ID: 026095 Name: THE LIMESTONE Lat: -36.97 Lon: 139.72 Height: 17.0 m
Data from the previous 72 hours. | See also: Recent months at Cape Jaffa
Date/Time
CST
Temp
°C
App
Temp
°C
Dew
Point
°C
Rel
Hum
%
Delta-T
°C
Wind Press
QNH
hPa
Press
MSL
hPa
Rain since
9am
mm
Dir  Spd
km/h
Gust
km/h
Spd
kts
Gust
kts
23/02:00pm 13.3 8.5 7.5 68 2.8 WSW 22 28 12 15 1028.5 1028.5 0.8
23/01:30pm 13.3 8.3 8.2 71 2.5 WSW 24 30 13 16 1028.6 1028.6 0.8
23/01:00pm 13.9 9.4 8.5 70 2.7 WSW 22 30 12 16 1028.7 1028.7 0.8
23/12:30pm 13.0 8.8 7.5 69 2.7 WSW 19 24 10 13 1028.9 1028.9 0.8
23/12:00pm 12.1 6.0 6.4 68 2.7 WSW 28 35 15 19 1028.8 1028.8 0.8
23/11:30am 11.6 4.8 6.7 72 2.3 WSW 32 39 17 21 1028.8 1028.8 0.8
23/11:00am 11.7 8.2 7.4 75 2.1 SW 15 20 8 11 1028.6 1028.6 0.8
23/10:30am 12.8 8.6 7.5 70 2.6 WSW 19 28 10 15 1028.5 1028.5 0.0
23/10:00am 13.4 7.8 7.0 65 3.1 SW 26 35 14 19 1028.4 1028.4 0.0
23/09:30am 13.3 8.0 8.4 72 2.4 SW 26 33 14 18 1028.2 1028.2 0.0
23/09:00am 11.8 6.5 6.9 72 2.3 SW 24 32 13 17 1028.0 1028.0 7.6
23/08:30am 12.6 6.6 6.9 68 2.7 SW 28 33 15 18 1027.7 1027.7 7.6
23/08:00am 11.4 5.3 6.5 72 2.3 WSW 28 37 15 20 1027.3 1027.3 7.6
23/07:30am 11.5 4.6 6.6 72 2.3 WSW 32 41 17 22 1026.9 1026.9 7.6
23/07:00am 11.0 5.3 6.7 75 2.0 SW 26 37 14 20 1026.4 1026.4 7.6
23/06:30am 10.7 4.0 5.7 71 2.3 SW 30 41 16 22 1025.9 1025.9 7.6
23/06:00am 10.5 4.1 6.8 78 1.7 SW 30 37 16 20 1025.4 1025.4 7.6
23/05:30am 10.1 3.9 6.3 77 1.8 SW 28 41 15 22 1024.8 1024.8 7.6
23/05:13am 10.3 3.5 7.0 80 1.6 WSW 32 54 17 29 1024.5 1024.5 7.6
23/05:00am 10.2 3.4 6.9 80 1.6 WSW 32 44 17 24 1024.5 1024.5 7.4
23/04:30am 9.4 2.6 6.8 84 1.2 SW 32 46 17 25 1024.1 1024.1 7.4
23/04:19am 10.5 3.2 7.0 79 1.7 WSW 35 56 19 30 1023.9 1023.9 6.8
23/04:00am 10.2 3.0 6.0 75 1.9 SW 33 44 18 24 1023.7 1023.7 6.8
23/03:30am 9.6 2.8 6.7 82 1.3 SW 32 43 17 23 1023.4 1023.4 6.8
23/03:25am 9.6 2.1 6.1 79 1.6 SW 35 43 19 23 1023.2 1023.2 6.8
23/03:00am 10.1 3.0 6.6 79 1.6 WSW 33 43 18 23 1023.1 1023.1 6.8
23/02:42am 10.3 2.9 6.6 78 1.7 WSW 35 54 19 29 1022.8 1022.8 6.8
23/02:30am 10.0 2.9 6.3 78 1.7 WSW 33 46 18 25 1022.9 1022.9 6.8
23/02:00am 9.8 2.8 6.2 78 1.7 WSW 32 43 17 23 1022.9 1022.9 6.8
23/01:30am 9.8 4.5 6.7 81 1.4 SW 24 32 13 17 1022.9 1022.9 6.6
23/01:00am 10.2 2.6 5.6 73 2.1 WSW 35 43 19 23 1022.8 1022.8 6.2
23/12:30am 10.4 3.3 5.6 72 2.2 WSW 32 43 17 23 1022.8 1022.8 6.2
23/12:00am 9.9 2.7 4.9 71 2.2 WSW 32 41 17 22 1022.8 1022.8 6.2
 
Date/Time
CST
Temp
°C
App
Temp
°C
Dew
Point
°C
Rel
Hum
%
Delta-T
°C
Wind Press
QNH
hPa
Press
MSL
hPa
Rain since
9am
mm
Dir  Spd
km/h
Gust
km/h
Spd
kts
Gust
kts
22/11:30pm 9.9 2.5 5.1 72 2.2 WSW 33 44 18 24 1022.6 1022.6 6.2
22/11:00pm 10.4 3.4 6.0 74 2.0 WSW 32 43 17 23 1022.5 1022.5 6.2
22/10:30pm 9.8 2.6 4.8 71 2.2 WSW 32 43 17 23 1022.4 1022.4 6.0
22/10:00pm 10.4 2.9 4.5 67 2.6 W 33 46 18 25 1022.2 1022.2 6.0
22/09:30pm 10.4 4.1 5.8 73 2.1 W 28 43 15 23 1022.0 1022.0 6.0
22/09:00pm 9.9 4.4 6.1 77 1.7 W 24 33 13 18 1022.0 1022.0 6.0
22/08:30pm 10.2 4.8 6.4 77 1.8 W 24 35 13 19 1021.9 1021.9 6.0
22/08:00pm 9.7 4.8 7.0 83 1.3 W 22 32 12 17 1021.7 1021.7 6.0
22/07:30pm 9.5 5.6 7.3 86 1.0 NW 17 26 9 14 1021.6 1021.6 5.6
22/07:00pm 9.4 4.1 7.0 85 1.1 NNW 24 30 13 16 1021.4 1021.4 5.2
22/06:30pm 9.3 2.4 7.3 87 0.9 NNW 33 43 18 23 1021.2 1021.2 5.2
22/06:00pm 10.4 3.1 7.1 80 1.6 NNW 35 46 19 25 1021.3 1021.3 4.6
22/05:30pm 10.5 5.0 7.6 82 1.4 NNW 26 35 14 19 1021.2 1021.2 4.6
22/05:00pm 10.3 3.9 7.0 80 1.6 NNW 30 39 16 21 1020.9 1020.9 4.6
22/04:30pm 10.5 4.2 7.4 81 1.5 NNW 30 41 16 22 1021.0 1021.0 4.6
22/04:00pm 10.1 3.5 7.7 85 1.2 NNW 32 43 17 23 1021.3 1021.3 4.6
22/03:30pm 10.3 5.1 7.4 82 1.4 NW 24 35 13 19 1021.5 1021.5 4.4
22/03:00pm 10.6 5.8 7.3 80 1.6 NW 22 32 12 17 1021.5 1021.5 4.0
22/02:30pm 10.3 2.1 6.5 77 1.8 WNW 39 50 21 27 1021.5 1021.5 3.6
22/02:00pm 11.8 5.0 7.1 73 2.3 WNW 32 44 17 24 1021.3 1021.3 3.6
22/01:30pm 10.6 3.9 7.5 81 1.5 W 32 46 17 25 1021.6 1021.6 3.6
22/01:22pm 11.9 5.1 7.0 72 2.3 WNW 32 46 17 25 1021.7 1021.7 3.6
22/01:00pm 13.3 6.4 7.3 67 2.9 NW 33 46 18 25 1021.6 1021.6 3.6
22/12:30pm 12.7 5.9 7.0 68 2.7 NW 32 43 17 23 1021.9 1021.9 3.6
22/12:00pm 11.1 5.2 7.6 79 1.7 NW 28 41 15 22 1022.2 1022.2 3.6
22/11:30am 9.6 3.6 6.9 83 1.3 NW 28 43 15 23 1022.3 1022.3 3.0
22/11:03am 8.1 1.4 5.6 84 1.1 NW 30 48 16 26 1022.5 1022.5 2.4
22/11:00am 8.0 0.6 5.1 82 1.3 NW 33 48 18 26 1022.7 1022.7 2.0
22/10:56am 9.1 2.2 4.7 74 2.0 NNW 30 48 16 26 1022.6 1022.6 0.8
22/10:30am 12.0 5.7 7.5 74 2.2 NNW 30 37 16 20 1022.2 1022.2 0.0
22/10:00am 10.7 5.0 6.8 77 1.8 NW 26 43 14 23 1022.5 1022.5 0.0
22/09:30am 10.8 5.1 6.9 77 1.8 NNW 26 35 14 19 1022.6 1022.6 0.0
22/09:00am 12.2 6.9 6.7 69 2.6 NNW 24 33 13 18 1022.4 1022.4 6.2
22/08:30am 12.0 7.3 6.1 67 2.8 NW 20 30 11 16 1022.3 1022.3 6.2
22/08:00am 11.9 7.4 6.2 68 2.7 NW 19 24 10 13 1022.0 1022.0 6.2
22/07:30am 11.2 7.5 6.3 72 2.3 NW 15 24 8 13 1022.0 1022.0 6.0
22/07:00am 9.8 6.3 5.6 75 1.9 NW 13 17 7 9 1021.8 1021.8 6.0
22/06:30am 9.5 5.6 5.3 75 1.9 NW 15 19 8 10 1021.6 1021.6 6.0
22/06:00am 9.2 5.2 5.0 75 1.9 W 15 24 8 13 1021.3 1021.3 6.0
22/05:30am 8.9 4.7 3.9 71 2.2 W 15 20 8 11 1021.1 1021.1 6.0
22/05:00am 8.2 4.0 3.9 74 1.9 W 15 24 8 13 1020.8 1020.8 6.0
22/04:30am 8.5 4.1 4.5 76 1.8 WNW 17 22 9 12 1020.5 1020.5 6.0
22/04:00am 8.4 3.8 5.5 82 1.3 W 19 30 10 16 1020.4 1020.4 6.0
22/03:30am 8.0 4.3 4.4 78 1.6 WNW 13 17 7 9 1020.4 1020.4 5.4
22/03:00am 9.2 4.7 4.0 70 2.3 W 17 24 9 13 1020.3 1020.3 5.4
22/02:30am 8.4 4.3 4.2 75 1.8 WNW 15 17 8 9 1020.5 1020.5 5.4
22/02:00am 9.4 4.5 4.2 70 2.3 W 19 26 10 14 1020.5 1020.5 5.4
22/01:30am 9.0 4.5 4.4 73 2.0 WNW 17 20 9 11 1020.8 1020.8 5.4
22/01:00am 9.1 4.0 4.1 71 2.2 WNW 20 28 11 15 1020.9 1020.9 5.4
22/12:30am 9.0 4.0 3.4 68 2.4 W 19 24 10 13 1020.8 1020.8 5.4
22/12:00am 9.4 4.2 3.8 68 2.4 W 20 32 11 17 1020.8 1020.8 5.4
 
Date/Time
CST
Temp
°C
App
Temp
°C
Dew
Point
°C
Rel
Hum
%
Delta-T
°C
Wind Press
QNH
hPa
Press
MSL
hPa
Rain since
9am
mm
Dir  Spd
km/h
Gust
km/h
Spd
kts
Gust
kts
21/11:30pm 9.2 4.3 4.2 71 2.2 W 19 24 10 13 1020.7 1020.7 5.4
21/11:00pm 9.0 4.0 4.4 73 2.0 W 20 28 11 15 1020.7 1020.7 5.4
21/10:30pm 9.1 4.0 3.9 70 2.3 W 20 28 11 15 1020.6 1020.6 5.4
21/10:00pm 9.3 4.5 4.9 74 2.0 W 19 28 10 15 1020.7 1020.7 5.4
21/09:30pm 8.8 4.4 5.0 77 1.7 W 17 24 9 13 1020.7 1020.7 5.4
21/09:00pm 8.0 4.2 3.8 75 1.8 WNW 13 19 7 10 1020.8 1020.8 5.4
21/08:30pm 8.7 2.4 3.9 72 2.1 WNW 26 39 14 21 1020.7 1020.7 5.4
21/08:00pm 8.9 4.2 3.1 67 2.5 WNW 17 20 9 11 1020.3 1020.3 5.2
21/07:30pm 8.7 4.0 2.9 67 2.5 W 17 22 9 12 1020.1 1020.1 5.2
21/07:00pm 9.3 4.7 3.5 67 2.5 W 17 22 9 12 1019.8 1019.8 5.2
21/06:30pm 9.1 4.5 3.5 68 2.4 W 17 22 9 12 1019.5 1019.5 5.2
21/06:00pm 9.4 4.1 2.9 64 2.8 W 20 28 11 15 1019.1 1019.1 5.2
21/05:30pm 10.5 5.0 3.8 63 2.9 WSW 22 32 12 17 1018.7 1018.7 5.2
21/05:00pm 11.0 5.5 4.2 63 3.0 WSW 22 32 12 17 1018.3 1018.3 5.2
21/04:30pm 11.3 5.4 4.1 61 3.2 WSW 24 32 13 17 1017.9 1017.9 5.2
21/04:00pm 12.4 6.3 4.6 59 3.6 WSW 26 35 14 19 1017.5 1017.5 5.2
21/03:30pm 12.6 6.1 4.8 59 3.6 WSW 28 33 15 18 1017.3 1017.3 5.2
21/03:00pm 12.8 6.2 5.9 63 3.2 WSW 30 37 16 20 1016.8 1016.8 5.2
21/02:30pm 12.6 5.8 6.9 68 2.7 WSW 32 39 17 21 1016.4 1016.4 5.2
21/02:00pm 12.4 4.6 6.7 68 2.7 SW 37 46 20 25 1016.0 1016.0 5.2
21/01:30pm 12.8 5.8 8.5 75 2.1 SW 35 46 19 25 1015.6 1015.6 5.2
21/01:00pm 12.2 5.0 7.7 74 2.2 SW 35 46 19 25 1015.2 1015.2 5.2
21/12:30pm 11.6 5.5 8.3 80 1.6 SW 30 43 16 23 1015.1 1015.1 5.0
21/12:00pm 12.4 6.3 9.8 84 1.3 SW 32 43 17 23 1014.7 1014.7 5.0
21/11:30am 11.1 5.8 8.5 84 1.3 SW 26 33 14 18 1014.3 1014.3 5.0
21/11:03am 9.5 1.8 7.3 86 1.0 SW 37 57 20 31 1014.1 1014.1 4.4
21/11:00am 9.4 1.3 7.2 86 1.0 SW 39 57 21 31 1014.0 1014.0 4.2
21/10:54am 10.3 4.6 8.2 87 1.0 SW 28 50 15 27 1013.8 1013.8 4.0
21/10:30am 11.9 7.0 8.6 80 1.6 SW 24 32 13 17 1013.4 1013.4 1.8
21/10:00am 10.5 6.4 8.6 88 0.9 SW 20 26 11 14 1013.3 1013.3 1.8
21/09:30am 11.1 6.9 8.3 83 1.4 SW 20 24 11 13 1012.9 1012.9 0.2
21/09:00am 11.8 7.8 8.1 78 1.8 SW 19 26 10 14 1012.4 1012.4 11.0
21/08:30am 11.5 6.9 8.0 79 1.7 SW 22 30 12 16 1012.1 1012.1 11.0
21/08:00am 11.1 6.9 8.1 82 1.5 SW 20 26 11 14 1011.8 1011.8 11.0
21/07:30am 10.7 6.4 7.9 83 1.4 SW 20 26 11 14 1011.5 1011.5 11.0
21/07:00am 9.9 4.9 8.2 89 0.8 SW 24 33 13 18 1011.0 1011.0 11.0
21/06:30am 10.5 6.0 8.4 87 1.0 WSW 22 30 12 16 1010.6 1010.6 10.2
21/06:00am 10.3 5.7 8.2 87 1.0 SW 22 32 12 17 1010.0 1010.0 10.2
21/05:30am 10.1 4.7 8.0 87 1.0 SW 26 35 14 19 1009.5 1009.5 10.2
21/05:00am 10.1 4.3 7.9 86 1.1 SW 28 39 15 21 1009.7 1009.7 9.8
21/04:30am 9.6 2.9 7.5 87 1.0 SW 32 44 17 24 1009.1 1009.1 9.8
21/04:00am 9.4 3.2 7.7 89 0.8 SW 30 43 16 23 1009.3 1009.3 9.2
21/03:30am 9.1 0.2 7.5 90 0.8 WSW 44 61 24 33 1008.2 1008.2 9.2
21/03:12am 9.5 4.9 8.3 92 0.6 WNW 22 46 12 25 1008.6 1008.6 8.8
21/03:00am 10.3 9.4 9.2 93 0.5 N 4 6 2 3 1008.7 1008.7 7.4
21/02:30am 10.5 9.6 9.4 93 0.6 E 4 6 2 3 1008.5 1008.5 7.4
21/02:00am 10.7 9.5 9.6 93 0.6 ENE 6 7 3 4 1009.6 1009.6 7.2
21/01:30am 10.8 8.3 9.7 93 0.6 E 13 15 7 8 1009.7 1009.7 6.8
21/01:00am 11.1 8.7 10.0 93 0.6 ENE 13 15 7 8 1010.8 1010.8 5.8
21/12:30am 11.2 10.1 10.0 92 0.6 ENE 6 7 3 4 1011.0 1011.0 4.4
21/12:00am 11.3 10.2 9.9 91 0.7 E 6 7 3 4 1011.2 1011.2 3.6
 
Date/Time
CST
Temp
°C
App
Temp
°C
Dew
Point
°C
Rel
Hum
%
Delta-T
°C
Wind Press
QNH
hPa
Press
MSL
hPa
Rain since
9am
mm
Dir  Spd
km/h
Gust
km/h
Spd
kts
Gust
kts
20/11:30pm 11.6 10.6 10.2 91 0.7 SE 6 7 3 4 1011.3 1011.3 2.8
20/11:00pm 11.7 10.5 10.3 91 0.7 SSE 7 9 4 5 1011.6 1011.6 2.0
20/10:30pm 11.9 9.9 10.3 90 0.8 S 11 15 6 8 1011.9 1011.9 1.0
20/10:00pm 12.2 9.6 10.6 90 0.8 SSW 15 20 8 11 1012.3 1012.3 0.2
20/09:30pm 12.3 9.3 10.5 89 0.9 SW 17 20 9 11 1012.3 1012.3 0.0
20/09:00pm 12.6 9.6 10.8 89 0.9 SW 17 20 9 11 1012.7 1012.7 0.0
20/08:30pm 12.8 9.5 11.0 89 0.9 SW 19 24 10 13 1012.4 1012.4 0.0
20/08:00pm 12.6 9.3 10.8 89 0.9 SW 19 24 10 13 1012.4 1012.4 0.0
20/07:30pm 13.0 9.8 11.2 89 0.9 WSW 19 24 10 13 1012.7 1012.7 0.0
20/07:00pm 13.1 9.9 11.3 89 1.0 WSW 19 24 10 13 1011.9 1011.9 0.0
20/06:30pm 13.5 11.2 11.7 89 1.0 WSW 15 19 8 10 1012.5 1012.5 0.0
20/06:00pm 13.7 11.7 11.6 87 1.1 W 13 19 7 10 1012.4 1012.4 0.0
20/05:30pm 13.8 12.4 11.0 83 1.5 WNW 9 15 5 8 1012.1 1012.1 0.0
20/05:00pm 14.0 11.7 10.6 80 1.8 WNW 13 17 7 9 1012.4 1012.4 0.0
20/04:30pm 14.4 12.2 10.8 79 1.9 WNW 13 17 7 9 1011.8 1011.8 0.0
20/04:00pm 14.8 12.2 10.8 77 2.1 NW 15 22 8 12 1012.3 1012.3 0.0
20/03:30pm 15.6 12.8 11.2 75 2.4 NW 17 22 9 12 1012.2 1012.2 0.0
20/03:00pm 16.6 15.3 11.3 71 2.9 NW 9 17 5 9 1012.2 1012.2 0.0
20/02:30pm 16.3 13.3 10.6 69 3.0 NW 17 24 9 13 1012.1 1012.1 0.0

Other formats

Comma delimited format used in spreadsheet applications
http://www.bom.gov.au/fwo/IDS60801/IDS60801.94813.axf

JavaScript Object Notation format (JSON) in row-major order
http://www.bom.gov.au/fwo/IDS60801/IDS60801.94813.json

Data quality

Most of these data are generated automatically and are frequently updated. Quality checks on data are not normally performed. It is possible for incorrect values to appear. Refer to information at About Latest Weather Observations and please check the disclaimer before using these data.